createdAt,value
2023-05-13T00:09:18.772Z,6.35
2023-05-13T00:19:26.660Z,7.15
2023-05-13T00:29:28.597Z,7.55
2023-05-13T00:39:30.489Z,8.68
2023-05-13T00:49:35.509Z,7.97
2023-05-13T00:59:40.348Z,7.43
2023-05-13T01:10:09.374Z,7.30
2023-05-13T01:20:12.280Z,7.18
2023-05-13T01:30:15.485Z,7.07
2023-05-13T01:40:31.909Z,8.25
2023-05-13T01:50:34.459Z,8.13
2023-05-13T02:00:38.410Z,7.72
2023-05-13T02:10:56.931Z,7.82
2023-05-13T02:20:58.832Z,7.50
2023-05-13T02:31:01.749Z,7.55
2023-05-13T02:41:03.676Z,7.35
2023-05-13T02:51:09.817Z,8.52
2023-05-13T03:01:19.748Z,8.48
2023-05-13T03:11:21.919Z,7.65
2023-05-13T03:21:23.902Z,8.77
2023-05-13T03:31:26.175Z,10.32
2023-05-13T03:41:29.390Z,9.98
2023-05-13T03:51:33.220Z,8.63
2023-05-13T04:01:36.670Z,9.80
2023-05-13T04:11:38.613Z,10.10
2023-05-13T04:21:40.574Z,9.73
2023-05-13T04:31:43.782Z,10.60
2023-05-13T04:41:49.801Z,9.32
2023-05-13T04:51:51.688Z,10.35
2023-05-13T05:01:55.139Z,10.18
2023-05-13T05:11:56.989Z,9.38
2023-05-13T05:21:58.861Z,10.15
2023-05-13T05:32:01.012Z,9.80
2023-05-13T05:42:03.233Z,9.05
2023-05-13T05:52:05.588Z,8.35
2023-05-13T06:02:08.544Z,9.13
2023-05-13T06:12:10.551Z,8.63
2023-05-13T06:22:12.495Z,7.85
2023-05-13T06:32:15.012Z,6.93
2023-05-13T06:42:21.500Z,6.25
2023-05-13T07:02:28.223Z,4.03
2023-05-13T07:12:37.281Z,4.47
2023-05-13T07:23:07.153Z,3.53
2023-05-13T07:33:11.466Z,3.53
2023-05-13T07:43:14.471Z,3.53
2023-05-13T07:53:24.107Z,3.60
2023-05-13T08:03:26.191Z,2.63
2023-05-13T08:13:28.279Z,2.88
2023-05-13T08:23:40.840Z,2.55
2023-05-13T08:33:48.737Z,2.83
2023-05-13T08:43:54.470Z,3.40
2023-05-13T08:53:56.724Z,3.15
2023-05-13T09:04:02.167Z,4.75
2023-05-13T09:14:05.848Z,2.58
2023-05-13T09:24:13.737Z,2.95
2023-05-13T09:34:25.459Z,2.55
2023-05-13T09:44:27.555Z,1.80
2023-05-13T09:54:35.397Z,2.17
2023-05-13T10:04:37.922Z,2.33
2023-05-13T10:14:48.247Z,2.28
2023-05-13T10:24:50.397Z,2.28
2023-05-13T10:35:08.946Z,2.10
2023-05-13T10:45:11.599Z,2.55
2023-05-13T10:55:20.636Z,2.47
2023-05-13T11:05:22.879Z,2.00
2023-05-13T11:15:43.281Z,2.38
2023-05-13T11:25:46.391Z,2.50
2023-05-13T11:35:56.868Z,2.92
2023-05-13T11:45:59.883Z,2.30
2023-05-13T11:56:13.030Z,2.45
2023-05-13T12:06:16.105Z,1.80
2023-05-13T12:16:18.301Z,2.42
2023-05-13T12:26:21.941Z,2.53
2023-05-13T12:36:36.150Z,2.42
2023-05-13T12:46:38.351Z,2.72
2023-05-13T12:56:40.724Z,2.63
2023-05-13T13:06:43.012Z,2.30
2023-05-13T13:16:44.967Z,2.72
2023-05-13T13:26:50.130Z,2.05
2023-05-13T13:36:53.123Z,2.35
2023-05-13T13:46:55.264Z,2.63
2023-05-13T13:56:57.171Z,3.92
2023-05-13T14:07:00.412Z,2.47
2023-05-13T14:17:02.450Z,2.75
2023-05-13T14:27:04.604Z,2.13
2023-05-13T14:37:06.567Z,2.55
2023-05-13T14:47:09.081Z,2.95
2023-05-13T14:57:12.188Z,2.40
2023-05-13T15:07:14.219Z,2.63
2023-05-13T15:17:19.533Z,3.40
2023-05-13T15:27:26.057Z,2.63
2023-05-13T15:37:28.991Z,2.35
2023-05-13T15:47:31.265Z,2.83
2023-05-13T15:57:45.125Z,2.83
2023-05-13T16:07:47.234Z,2.45
2023-05-13T16:17:49.407Z,3.00
2023-05-13T16:27:51.489Z,2.67
2023-05-13T16:37:55.921Z,1.95
2023-05-13T16:47:58.103Z,2.33
2023-05-13T16:58:01.727Z,3.38
2023-05-13T17:08:06.943Z,2.85
2023-05-13T17:18:09.961Z,3.67
2023-05-13T17:28:11.944Z,4.25
2023-05-13T17:38:15.884Z,2.75
2023-05-13T17:48:17.928Z,2.60
2023-05-13T17:58:20.010Z,3.53
2023-05-13T18:08:24.156Z,2.20
2023-05-13T18:18:28.276Z,2.55
2023-05-13T18:28:32.392Z,3.20
2023-05-13T18:38:34.509Z,4.30
2023-05-13T18:48:38.657Z,4.38
2023-05-13T18:58:41.007Z,10.20
2023-05-13T19:08:44.183Z,9.77
2023-05-13T19:18:48.054Z,9.20
2023-05-13T19:28:50.365Z,9.27
2023-05-13T19:38:53.380Z,6.22
2023-05-13T19:48:55.499Z,4.28
2023-05-13T19:58:57.529Z,5.13
2023-05-13T20:09:01.027Z,5.40
2023-05-13T20:19:08.914Z,5.50
2023-05-13T20:29:15.048Z,9.90
2023-05-13T20:39:17.640Z,10.00
2023-05-13T20:49:31.386Z,10.05
2023-05-13T20:59:33.403Z,12.57
2023-05-13T21:09:35.394Z,10.45
2023-05-13T21:19:37.538Z,8.88
2023-05-13T21:29:39.677Z,13.90
2023-05-13T21:39:42.964Z,18.05
2023-05-13T21:49:44.989Z,13.90
2023-05-13T22:07:11.430Z,14.93
2023-05-13T22:17:34.179Z,12.50
2023-05-13T22:27:36.258Z,15.05
2023-05-13T22:37:39.281Z,14.05
2023-05-13T22:47:41.291Z,14.68
2023-05-13T22:57:43.208Z,16.52
2023-05-13T23:07:46.183Z,17.63
2023-05-13T23:17:48.197Z,14.43
2023-05-13T23:27:58.163Z,12.98
2023-05-13T23:38:00.838Z,11.18
2023-05-13T23:48:03.774Z,12.43
2023-05-13T23:58:05.772Z,12.80
